OIIK  Qazvin Airport

Add Bookmark

Qazvin, Iran

Status
Operational
Latitude Longitude
36° 14' 24" N 50° 2' 49" E
36.240101 50.047100
Local (DST + 5) UTC (GMT + 4)
Nov 1, 2014 12:49 Oct 31, 2014 21:19
Sunrise-Sunset Local UTC
Begin Civil Twilight 06:04 02:34
Sunrise 06:31 03:01
Sunset 05:15 13:45
End Civil Twilight 05:41 14:11

Current Weather

METAR Observed VFR
OIIK 312000Z 10008KT CAVOK 10/M01 Q1017 Fri, Oct 31, 2014 @ 20:00 UTC
(1 Hour, 19 Minutes ago)
Visual Flight Rules
Wind Visibility Clouds Conditions
100° at 8 knots (15 kph) 10 km or more
  • Clear skies
  • No significant weather
Temperatures Readings Precipitation
Current Temp 10°C (50°F)
Dewpoint -1°C (30°F)
Humidity 47%
Altimeter 30.03"Hg
Sea Level Pressure 1017mb
Field Elevation 4192.91'
None Recorded

Additional weather within a 92.6km radius of OIIK

Map ICAO Location
OIIP 87km S (126°)

24 Hour Weather History

Loading
-

24 Hour Weather Graphs

Loading
-

CheckWX.com is intended as a tool to help pilots better visualize weather data. It is not intended as a substitute for an official weather briefing obtained from a Flight Service Station. CheckWX.com does not meet the FAA requirements for an official pre-flight weather briefing. Therefore, it's important that pilots still call and obtain an official FSS pre-flight weather briefing.